createdAt,value
2023-03-06T00:00:48.903Z,28.50
2023-03-06T00:03:22.878Z,28.50
2023-03-06T00:05:53.630Z,28.20
2023-03-06T00:08:24.887Z,28.20
2023-03-06T00:13:25.919Z,25.70
2023-03-06T00:16:00.055Z,26.50
2023-03-06T00:18:31.228Z,28.20
2023-03-06T00:21:02.610Z,26.90
2023-03-06T00:23:33.270Z,27.90
2023-03-06T00:26:06.488Z,27.20
2023-03-06T00:28:37.677Z,28.40
2023-03-06T00:31:08.571Z,27.80
2023-03-06T00:33:39.365Z,27.10
2023-03-06T00:36:10.778Z,27.30
2023-03-06T00:38:41.558Z,27.60
2023-03-06T00:41:13.224Z,28.10
2023-03-06T00:43:43.848Z,28.10
2023-03-06T00:46:14.619Z,24.90
2023-03-06T00:48:45.356Z,25.30
2023-03-06T00:51:16.009Z,26.70
2023-03-06T00:53:46.741Z,26.00
2023-03-06T00:56:19.840Z,26.50
2023-03-06T00:58:50.620Z,26.50
2023-03-06T01:01:21.402Z,27.20
2023-03-06T01:03:52.049Z,25.30
2023-03-06T01:06:22.857Z,24.80
2023-03-06T01:08:53.474Z,24.80
2023-03-06T01:11:24.376Z,24.10
2023-03-06T01:13:55.102Z,25.60
2023-03-06T01:16:25.808Z,24.00
2023-03-06T01:18:56.472Z,22.80
2023-03-06T01:21:28.064Z,23.20
2023-03-06T01:23:58.772Z,20.50
2023-03-06T01:26:29.478Z,21.70
2023-03-06T01:29:00.161Z,19.60
2023-03-06T01:31:30.898Z,19.30
2023-03-06T01:34:01.902Z,18.50
2023-03-06T01:36:32.594Z,17.80
2023-03-06T01:39:03.762Z,17.80
2023-03-06T01:44:04.646Z,16.30
2023-03-06T01:46:37.706Z,18.10
2023-03-06T01:49:15.139Z,17.50
2023-03-06T01:51:52.083Z,17.00
2023-03-06T01:54:26.898Z,17.80
2023-03-06T01:57:03.641Z,16.70
2023-03-06T01:59:36.800Z,17.10
2023-03-06T02:02:09.473Z,16.30
2023-03-06T02:04:41.643Z,15.80
2023-03-06T02:07:14.264Z,15.00
2023-03-06T02:09:45.031Z,16.50
2023-03-06T02:12:18.833Z,14.70
2023-03-06T02:14:50.312Z,14.90
2023-03-06T02:17:22.412Z,13.90
2023-03-06T02:20:00.556Z,13.10
2023-03-06T02:22:37.542Z,12.20
2023-03-06T02:25:15.235Z,12.80
2023-03-06T02:27:46.000Z,13.70
2023-03-06T02:30:19.077Z,12.40
2023-03-06T02:32:56.861Z,12.40
2023-03-06T02:35:29.001Z,14.20
2023-03-06T02:38:04.499Z,14.20
2023-03-06T02:40:35.382Z,12.70
2023-03-06T02:43:06.148Z,12.10
2023-03-06T02:45:39.548Z,12.00
2023-03-06T02:48:10.254Z,10.60
2023-03-06T02:50:41.398Z,10.50
2023-03-06T02:55:41.938Z,9.70
2023-03-06T02:58:12.691Z,9.70
2023-03-06T03:00:43.349Z,10.30
2023-03-06T03:03:14.229Z,10.00
2023-03-06T03:05:44.871Z,10.40
2023-03-06T03:08:15.600Z,9.50
2023-03-06T03:10:46.253Z,9.00
2023-03-06T03:13:16.992Z,9.60
2023-03-06T03:15:57.073Z,8.80
2023-03-06T03:18:28.177Z,9.10
2023-03-06T03:23:28.281Z,8.50
2023-03-06T03:26:08.096Z,8.40
2023-03-06T03:28:39.161Z,9.40
2023-03-06T03:31:11.123Z,8.70
2023-03-06T03:33:42.408Z,7.70
2023-03-06T03:38:42.280Z,6.80
2023-03-06T03:41:13.051Z,6.50
2023-03-06T03:43:43.908Z,5.90
2023-03-06T03:46:14.617Z,6.60
2023-03-06T03:48:45.323Z,5.40
2023-03-06T03:51:16.022Z,5.50
2023-03-06T03:53:46.774Z,5.50
2023-03-06T03:56:17.518Z,5.50
2023-03-06T03:58:48.221Z,6.00
2023-03-06T04:01:18.920Z,5.70
2023-03-06T04:03:49.636Z,5.30
2023-03-06T04:06:20.607Z,5.10
2023-03-06T04:08:51.333Z,4.80
2023-03-06T04:11:22.011Z,4.60
2023-03-06T04:13:52.695Z,3.80
2023-03-06T04:16:23.730Z,4.20
2023-03-06T04:18:54.451Z,3.40
2023-03-06T04:21:25.206Z,3.50
2023-03-06T04:23:56.076Z,3.90
2023-03-06T04:26:26.968Z,4.20
2023-03-06T04:28:57.634Z,4.60
2023-03-06T04:31:28.284Z,3.20
2023-03-06T04:33:58.977Z,3.10
2023-03-06T04:36:33.690Z,2.50
2023-03-06T04:39:05.512Z,2.60
2023-03-06T04:41:36.163Z,3.60
2023-03-06T04:44:07.704Z,6.20
2023-03-06T04:46:38.545Z,6.50
2023-03-06T04:49:09.253Z,6.20
2023-03-06T04:51:39.892Z,6.30
2023-03-06T04:54:10.587Z,5.40
2023-03-06T04:56:41.549Z,5.10
2023-03-06T04:59:12.230Z,3.70
2023-03-06T05:01:42.951Z,4.30
2023-03-06T05:04:13.569Z,4.10
2023-03-06T05:06:44.320Z,4.60
2023-03-06T05:09:15.043Z,4.10
2023-03-06T05:11:45.686Z,3.80
2023-03-06T05:14:16.419Z,4.80
2023-03-06T05:16:47.171Z,4.80
2023-03-06T05:19:17.882Z,5.10
2023-03-06T05:21:48.514Z,6.70
2023-03-06T05:24:19.574Z,7.00
2023-03-06T05:29:19.471Z,9.10
2023-03-06T05:31:50.193Z,10.60
2023-03-06T05:34:20.884Z,8.50
2023-03-06T05:36:51.557Z,8.10
2023-03-06T05:39:22.261Z,7.10
2023-03-06T05:41:52.867Z,6.60
2023-03-06T05:44:23.510Z,7.60
2023-03-06T05:46:54.105Z,7.30
2023-03-06T05:49:24.794Z,7.00
2023-03-06T05:51:55.451Z,9.00
2023-03-06T05:54:26.132Z,7.60
2023-03-06T05:56:56.929Z,7.50
2023-03-06T05:59:28.163Z,7.80
2023-03-06T06:01:59.900Z,8.80
2023-03-06T06:04:30.687Z,7.90
2023-03-06T06:07:01.937Z,10.00
2023-03-06T06:09:32.613Z,9.10
2023-03-06T06:12:04.634Z,7.20
2023-03-06T06:14:36.409Z,7.20
2023-03-06T06:17:07.219Z,8.90
2023-03-06T06:19:38.540Z,10.60
2023-03-06T06:22:09.742Z,11.70
2023-03-06T06:27:10.090Z,12.50
2023-03-06T06:32:09.919Z,10.30
2023-03-06T06:34:40.557Z,10.70
2023-03-06T06:37:13.125Z,12.10
2023-03-06T06:39:43.930Z,14.70
2023-03-06T06:42:30.997Z,15.80
2023-03-06T06:45:04.454Z,14.80
2023-03-06T06:47:35.169Z,14.10
2023-03-06T06:50:15.678Z,13.00
2023-03-06T06:52:46.400Z,12.10
2023-03-06T06:55:17.658Z,12.30
2023-03-06T06:57:48.366Z,13.40
2023-03-06T07:00:20.781Z,10.60
2023-03-06T07:02:51.478Z,10.30
2023-03-06T07:05:22.272Z,8.80
2023-03-06T07:07:53.053Z,8.70
2023-03-06T07:10:24.592Z,7.90
2023-03-06T07:12:55.247Z,8.20
2023-03-06T07:15:26.050Z,8.40
2023-03-06T07:17:56.782Z,7.60
2023-03-06T07:20:28.366Z,10.70
2023-03-06T07:22:59.067Z,10.80
2023-03-06T07:25:29.894Z,10.60
2023-03-06T07:28:00.704Z,13.00
2023-03-06T07:30:32.693Z,13.90
2023-03-06T07:33:03.416Z,18.20
2023-03-06T07:35:34.431Z,18.70
2023-03-06T07:38:05.396Z,18.20
2023-03-06T07:40:36.080Z,23.70
2023-03-06T07:43:18.617Z,20.40
2023-03-06T07:45:57.596Z,24.80
2023-03-06T07:48:28.735Z,31.10
2023-03-06T07:51:01.726Z,35.80
2023-03-06T07:53:33.044Z,24.00
2023-03-06T07:56:05.592Z,16.80
2023-03-06T07:58:36.865Z,16.20
2023-03-06T08:01:09.689Z,14.70
2023-03-06T08:03:40.530Z,12.80
2023-03-06T08:06:13.882Z,14.90
2023-03-06T08:08:46.187Z,15.40
2023-03-06T08:11:19.560Z,25.50
2023-03-06T08:13:50.980Z,27.40
2023-03-06T08:16:23.777Z,29.50
2023-03-06T08:18:54.873Z,27.10
2023-03-06T08:23:55.919Z,22.40
2023-03-06T08:29:00.371Z,23.70
2023-03-06T08:31:35.266Z,24.90
2023-03-06T08:34:07.333Z,47.80
2023-03-06T08:36:40.504Z,32.90
2023-03-06T08:39:11.776Z,27.30
2023-03-06T08:41:43.098Z,21.60
2023-03-06T08:44:13.989Z,21.40
2023-03-06T08:46:44.733Z,19.70
2023-03-06T08:49:15.785Z,18.80
2023-03-06T08:51:46.444Z,15.80
2023-03-06T08:54:17.232Z,17.10
2023-03-06T08:56:48.012Z,16.70
2023-03-06T08:59:18.760Z,15.40
2023-03-06T09:01:49.720Z,14.10
2023-03-06T09:04:20.559Z,16.60
2023-03-06T09:06:51.304Z,14.50
2023-03-06T09:09:22.000Z,15.20
2023-03-06T09:11:52.629Z,14.90
2023-03-06T09:14:23.283Z,11.50
2023-03-06T09:16:54.096Z,11.40
2023-03-06T09:19:24.856Z,9.80
2023-03-06T09:21:55.575Z,10.80
2023-03-06T09:24:26.240Z,9.00
2023-03-06T09:26:56.978Z,9.30
2023-03-06T09:29:28.245Z,9.50
2023-03-06T09:31:59.013Z,10.20
2023-03-06T09:34:29.719Z,8.90
2023-03-06T09:37:01.561Z,8.20
2023-03-06T09:39:32.286Z,7.40
2023-03-06T09:42:03.549Z,7.20
2023-03-06T09:47:38.375Z,6.40
2023-03-06T09:50:18.577Z,6.20
2023-03-06T09:53:03.470Z,6.10
2023-03-06T09:55:36.164Z,5.40
2023-03-06T09:58:15.695Z,5.90
2023-03-06T10:00:55.439Z,6.20
2023-03-06T10:03:31.147Z,5.50
2023-03-06T10:06:09.419Z,5.60
2023-03-06T10:08:51.531Z,5.70
2023-03-06T10:11:29.058Z,5.50
2023-03-06T10:14:13.991Z,5.30
2023-03-06T10:16:44.718Z,5.30
2023-03-06T10:19:18.145Z,5.80
2023-03-06T10:21:58.265Z,5.70
2023-03-06T10:24:46.930Z,5.00
2023-03-06T10:27:38.430Z,5.60
2023-03-06T10:30:32.640Z,6.10
2023-03-06T10:33:08.923Z,6.00
2023-03-06T10:35:48.223Z,5.90
2023-03-06T10:38:23.141Z,6.00
2023-03-06T10:41:06.224Z,6.30
2023-03-06T10:43:38.322Z,5.40
2023-03-06T10:46:10.864Z,5.90
2023-03-06T10:48:43.662Z,6.30
2023-03-06T10:51:19.928Z,6.20
2023-03-06T10:53:53.336Z,4.90
2023-03-06T10:56:32.887Z,5.80
2023-03-06T10:59:15.028Z,5.50
2023-03-06T11:01:47.187Z,5.90
2023-03-06T11:04:29.426Z,6.20
2023-03-06T11:07:16.428Z,6.70
2023-03-06T11:10:01.372Z,7.90
2023-03-06T11:12:33.367Z,7.60
2023-03-06T11:15:19.679Z,7.10
2023-03-06T11:18:00.269Z,7.20
2023-03-06T11:20:49.995Z,7.40
2023-03-06T11:23:29.123Z,7.10
2023-03-06T11:26:05.213Z,5.80
2023-03-06T11:28:42.173Z,6.20
2023-03-06T11:31:16.436Z,6.60
2023-03-06T11:33:52.631Z,6.00
2023-03-06T11:36:30.220Z,6.10
2023-03-06T11:39:02.991Z,5.90
2023-03-06T11:41:40.461Z,6.70
2023-03-06T11:44:18.038Z,6.40
2023-03-06T11:47:03.289Z,5.90
2023-03-06T11:49:43.640Z,6.10
2023-03-06T11:52:23.578Z,6.50
2023-03-06T11:54:56.394Z,6.50
2023-03-06T11:57:35.114Z,6.30
2023-03-06T12:00:19.525Z,6.40
2023-03-06T12:03:12.592Z,6.50
2023-03-06T12:05:50.559Z,6.50
2023-03-06T12:08:46.425Z,7.50
2023-03-06T12:11:23.832Z,7.90
2023-03-06T12:14:10.972Z,7.40
2023-03-06T12:16:53.168Z,6.40
2023-03-06T12:19:37.917Z,7.20
2023-03-06T12:22:31.529Z,7.00
2023-03-06T12:25:22.801Z,7.70
2023-03-06T12:30:40.007Z,6.80
2023-03-06T12:33:22.698Z,6.20
2023-03-06T12:36:16.639Z,7.00
2023-03-06T12:39:09.799Z,7.60
2023-03-06T12:41:54.517Z,6.20
2023-03-06T12:44:51.738Z,5.80
2023-03-06T12:47:26.776Z,5.60
2023-03-06T12:50:00.978Z,4.00
2023-03-06T12:52:33.853Z,3.00
2023-03-06T12:55:08.308Z,3.00
2023-03-06T12:57:38.960Z,2.90
2023-03-06T13:00:43.811Z,3.50
2023-03-06T13:03:21.490Z,2.90
2023-03-06T13:06:12.335Z,3.30
2023-03-06T13:09:14.086Z,3.20
2023-03-06T13:12:02.967Z,3.70
2023-03-06T13:14:56.479Z,4.30
2023-03-06T13:17:36.048Z,4.20
2023-03-06T13:20:29.380Z,4.60
2023-03-06T13:23:20.138Z,4.10
2023-03-06T13:25:51.722Z,4.40
2023-03-06T13:28:38.886Z,4.30
2023-03-06T13:31:21.364Z,4.80
2023-03-06T13:33:59.609Z,4.50
2023-03-06T13:36:33.006Z,5.70
2023-03-06T13:39:12.543Z,5.20
2023-03-06T13:41:58.082Z,5.80
2023-03-06T13:44:49.165Z,6.60
2023-03-06T13:47:32.459Z,7.40
2023-03-06T13:50:17.459Z,6.50
2023-03-06T13:53:01.220Z,5.60
2023-03-06T13:55:44.385Z,5.60
2023-03-06T13:58:32.133Z,5.10
2023-03-06T14:01:31.151Z,5.60
2023-03-06T14:04:36.598Z,5.10
2023-03-06T14:07:21.797Z,6.10
2023-03-06T14:10:01.148Z,6.60
2023-03-06T14:12:35.130Z,10.20
2023-03-06T14:15:17.284Z,11.70
2023-03-06T14:17:57.264Z,13.20
2023-03-06T14:20:35.264Z,12.20
2023-03-06T14:23:25.762Z,7.70
2023-03-06T14:26:08.261Z,6.60
2023-03-06T14:28:38.945Z,5.70
2023-03-06T14:31:16.483Z,5.40
2023-03-06T14:33:53.764Z,5.20
2023-03-06T14:36:28.381Z,4.80
2023-03-06T14:39:02.597Z,5.20
2023-03-06T14:41:35.216Z,4.80
2023-03-06T14:44:17.524Z,4.80
2023-03-06T14:46:50.015Z,5.00
2023-03-06T14:49:22.228Z,5.10
2023-03-06T14:51:54.624Z,5.30
2023-03-06T14:54:29.060Z,5.60
2023-03-06T14:57:04.849Z,5.20
2023-03-06T14:59:41.704Z,5.90
2023-03-06T15:02:17.601Z,6.10
2023-03-06T15:04:51.253Z,5.20
2023-03-06T15:07:27.629Z,6.50
2023-03-06T15:09:59.705Z,5.70
2023-03-06T15:12:38.063Z,6.00
2023-03-06T15:18:28.152Z,5.70
2023-03-06T15:21:09.246Z,5.90
2023-03-06T15:23:42.934Z,6.50
2023-03-06T15:26:29.584Z,5.40
2023-03-06T15:29:09.202Z,5.70
2023-03-06T15:31:41.908Z,6.00
2023-03-06T15:34:21.697Z,6.70
2023-03-06T15:36:54.537Z,6.00
2023-03-06T15:39:36.636Z,7.50
2023-03-06T15:42:18.324Z,8.90
2023-03-06T15:44:53.692Z,7.80
2023-03-06T15:47:24.658Z,8.70
2023-03-06T15:49:55.399Z,8.90
2023-03-06T15:52:26.044Z,7.30
2023-03-06T15:54:56.783Z,6.50
2023-03-06T15:57:28.420Z,6.10
2023-03-06T15:59:59.752Z,5.80
2023-03-06T16:02:30.409Z,5.70
2023-03-06T16:05:01.439Z,5.70
2023-03-06T16:07:32.536Z,5.30
2023-03-06T16:12:32.439Z,5.60
2023-03-06T16:15:03.375Z,5.80
2023-03-06T16:17:34.026Z,5.40
2023-03-06T16:20:14.914Z,5.90
2023-03-06T16:22:46.868Z,6.60
2023-03-06T16:25:18.742Z,6.30
2023-03-06T16:27:52.019Z,6.90
2023-03-06T16:30:34.392Z,7.30
2023-03-06T16:33:06.021Z,7.30
2023-03-06T16:35:36.732Z,7.20
2023-03-06T16:38:07.616Z,7.80
2023-03-06T16:40:39.266Z,8.10
2023-03-06T16:43:10.850Z,9.20
2023-03-06T16:45:42.692Z,9.50
2023-03-06T16:48:16.661Z,9.80
2023-03-06T16:50:47.564Z,9.80
2023-03-06T16:53:18.782Z,10.80
2023-03-06T16:55:49.504Z,12.40
2023-03-06T16:58:20.234Z,12.20
2023-03-06T17:00:51.188Z,11.00
2023-03-06T17:03:21.822Z,11.70
2023-03-06T17:05:52.501Z,11.50
2023-03-06T17:08:23.298Z,11.80
2023-03-06T17:10:53.986Z,10.80
2023-03-06T17:13:24.892Z,11.90
2023-03-06T17:15:56.120Z,13.10
2023-03-06T17:18:27.810Z,14.70
2023-03-06T17:20:59.139Z,13.00
2023-03-06T17:26:08.331Z,15.50
2023-03-06T17:28:39.609Z,18.90
2023-03-06T17:33:47.133Z,28.50
2023-03-06T17:36:18.294Z,51.10
2023-03-06T17:41:18.223Z,60.00
2023-03-06T17:43:49.257Z,55.10
2023-03-06T17:48:49.378Z,41.10
2023-03-06T17:51:20.087Z,67.10
2023-03-06T17:53:50.738Z,67.00
2023-03-06T17:56:21.721Z,62.30
2023-03-06T17:58:52.441Z,49.10
2023-03-06T18:01:24.630Z,40.00
2023-03-06T18:03:55.683Z,36.00
2023-03-06T18:08:56.229Z,30.30
2023-03-06T18:13:56.620Z,26.80
2023-03-06T18:16:28.869Z,27.60
2023-03-06T18:18:59.625Z,26.60
2023-03-06T18:21:30.576Z,26.80
2023-03-06T18:24:01.330Z,26.80
2023-03-06T18:26:32.735Z,31.70
2023-03-06T18:29:04.671Z,32.60
2023-03-06T18:31:37.580Z,47.80
2023-03-06T18:34:11.208Z,67.30
2023-03-06T18:36:42.414Z,75.30
2023-03-06T18:39:14.124Z,69.40
2023-03-06T18:41:44.976Z,69.50
2023-03-06T18:44:16.382Z,68.30
2023-03-06T18:46:47.158Z,69.00
2023-03-06T18:49:18.299Z,69.20
2023-03-06T18:51:51.285Z,55.40
2023-03-06T18:54:22.246Z,56.60
2023-03-06T18:59:22.691Z,47.10
2023-03-06T19:01:53.703Z,42.30
2023-03-06T19:06:54.279Z,48.70
2023-03-06T19:09:24.905Z,52.20
2023-03-06T19:11:57.301Z,58.90
2023-03-06T19:14:28.646Z,68.40
2023-03-06T19:16:59.429Z,64.60
2023-03-06T19:19:30.167Z,65.60
2023-03-06T19:22:01.482Z,62.60
2023-03-06T19:24:32.477Z,61.70
2023-03-06T19:27:03.204Z,60.40
2023-03-06T19:29:33.861Z,60.50
2023-03-06T19:32:05.089Z,60.00
2023-03-06T19:34:35.811Z,61.80
2023-03-06T19:37:06.493Z,62.80
2023-03-06T19:39:37.167Z,54.80
2023-03-06T19:42:07.989Z,49.10
2023-03-06T19:44:38.733Z,46.40
2023-03-06T19:47:09.620Z,50.00
2023-03-06T19:49:40.718Z,51.60
2023-03-06T19:54:41.023Z,49.50
2023-03-06T19:59:40.880Z,47.90
2023-03-06T20:02:12.915Z,45.00
2023-03-06T20:04:43.953Z,43.10
2023-03-06T20:09:44.013Z,40.10
2023-03-06T20:12:15.116Z,37.60
2023-03-06T20:14:45.861Z,37.00
2023-03-06T20:17:16.764Z,38.10
2023-03-06T20:22:17.339Z,34.30
2023-03-06T20:24:48.120Z,39.40
2023-03-06T20:27:18.879Z,33.80
2023-03-06T20:29:49.811Z,34.10
2023-03-06T20:32:20.493Z,29.00
2023-03-06T20:34:51.185Z,35.00
2023-03-06T20:37:21.890Z,38.20
2023-03-06T20:39:52.996Z,37.70
2023-03-06T20:44:53.051Z,30.90
2023-03-06T20:47:23.806Z,27.80
2023-03-06T20:49:54.562Z,27.80
2023-03-06T20:52:25.175Z,27.10
2023-03-06T20:54:55.835Z,25.90
2023-03-06T20:57:26.529Z,24.50
2023-03-06T20:59:57.141Z,24.80
2023-03-06T21:02:27.864Z,26.40
2023-03-06T21:04:58.635Z,27.10
2023-03-06T21:07:29.379Z,28.50
2023-03-06T21:10:00.317Z,29.40
2023-03-06T21:12:30.993Z,30.00
2023-03-06T21:15:01.679Z,38.20
2023-03-06T21:17:32.385Z,40.70
2023-03-06T21:20:03.248Z,47.20
2023-03-06T21:22:33.911Z,49.80
2023-03-06T21:25:05.319Z,49.20
2023-03-06T21:27:36.057Z,56.00
2023-03-06T21:30:09.041Z,62.40
2023-03-06T21:32:40.065Z,76.10
2023-03-06T21:35:10.814Z,84.50
2023-03-06T21:37:41.564Z,83.50
2023-03-06T21:40:14.777Z,81.20
2023-03-06T21:42:45.491Z,75.60
2023-03-06T21:45:16.734Z,68.90
2023-03-06T21:47:49.276Z,65.50
2023-03-06T21:50:20.210Z,67.20
2023-03-06T21:52:50.948Z,65.50
2023-03-06T21:55:23.003Z,62.00
2023-03-06T21:57:54.952Z,54.40
2023-03-06T22:00:25.859Z,55.20
2023-03-06T22:02:56.591Z,52.70
2023-03-06T22:05:27.255Z,54.20
2023-03-06T22:07:58.008Z,48.80
2023-03-06T22:10:29.079Z,50.50
2023-03-06T22:15:29.005Z,47.20
2023-03-06T22:17:59.716Z,47.50
2023-03-06T22:20:30.452Z,47.10
2023-03-06T22:23:01.110Z,48.00
2023-03-06T22:25:33.802Z,43.80
2023-03-06T22:28:04.503Z,39.60
2023-03-06T22:30:35.207Z,31.30
2023-03-06T22:33:06.064Z,29.10
2023-03-06T22:35:36.832Z,30.60
2023-03-06T22:38:07.499Z,29.40
2023-03-06T22:40:38.361Z,34.90
2023-03-06T22:43:09.025Z,36.40
2023-03-06T22:45:39.646Z,35.90
2023-03-06T22:48:11.387Z,33.60
2023-03-06T22:50:42.077Z,33.00
2023-03-06T22:53:12.771Z,32.20
2023-03-06T22:55:43.525Z,30.40
2023-03-06T22:58:14.174Z,24.00
2023-03-06T23:00:44.879Z,24.30
2023-03-06T23:03:15.569Z,21.70
2023-03-06T23:05:46.188Z,24.50
2023-03-06T23:08:16.886Z,25.70
2023-03-06T23:10:47.585Z,26.70
2023-03-06T23:13:18.215Z,28.20
2023-03-06T23:15:48.978Z,27.00
2023-03-06T23:18:19.712Z,26.70
2023-03-06T23:20:50.363Z,23.90
2023-03-06T23:23:21.439Z,24.90
2023-03-06T23:28:21.545Z,22.30
2023-03-06T23:33:21.447Z,24.40
2023-03-06T23:35:55.527Z,24.60
2023-03-06T23:38:26.231Z,27.60
2023-03-06T23:41:01.017Z,26.40
2023-03-06T23:43:31.974Z,28.30
2023-03-06T23:46:02.706Z,28.30
2023-03-06T23:48:33.805Z,28.60
2023-03-06T23:53:37.189Z,28.50
2023-03-06T23:58:37.624Z,28.60
